Time;durP1;ratioP1;P1;durP2;ratioP2;P2;SDS_P1;SDS_P2;PMS_P1;PMS_P2;Temp;Humidity;BMP_temperature;BMP_pressure;BME280_temperature;BME280_humidity;BME280_pressure;Samples;Min_cycle;Max_cycle;Signal;HPM_P1;HPM_P2
2021/06/24 00:00:56;;;;;;;4.43;2.75;;;17.00;88.90;;;;;;5034437;28;20032;-73
2021/06/24 00:03:25;;;;;;;;;;;17.00;89.00;;;;;;5026962;28;20097;-72
2021/06/24 00:05:52;;;;;;;7.10;2.83;;;17.00;88.90;;;;;;5038629;28;20286;-72
2021/06/24 00:08:18;;;;;;;4.97;2.42;;;16.90;88.80;;;;;;5030599;28;20036;-72
2021/06/24 00:10:44;;;;;;;6.07;3.08;;;16.90;88.90;;;;;;5028822;28;20033;-72
2021/06/24 00:13:11;;;;;;;9.40;2.85;;;17.00;88.80;;;;;;5030535;28;20060;-73
2021/06/24 00:15:37;;;;;;;4.72;2.60;;;16.90;88.70;;;;;;5030388;28;20029;-72
2021/06/24 00:18:03;;;;;;;7.78;3.10;;;16.90;88.60;;;;;;5033331;28;20427;-72
2021/06/24 00:20:29;;;;;;;4.80;2.85;;;16.90;88.60;;;;;;5031907;28;20049;-73
2021/06/24 00:22:55;;;;;;;7.20;2.92;;;16.90;88.70;;;;;;5031080;28;20060;-74
2021/06/24 00:25:20;;;;;;;10.88;2.63;;;16.90;88.70;;;;;;5029617;28;20037;-72
2021/06/24 00:27:46;;;;;;;9.15;2.85;;;16.90;88.80;;;;;;5029611;28;20072;-73
2021/06/24 00:30:13;;;;;;;8.63;2.95;;;16.80;88.60;;;;;;5029818;28;20491;-72
2021/06/24 00:32:39;;;;;;;5.07;2.70;;;16.80;88.60;;;;;;5038613;28;20024;-72
2021/06/24 00:35:06;;;;;;;5.88;2.50;;;16.80;88.70;;;;;;5030839;28;20029;-72
2021/06/24 00:37:33;;;;;;;8.50;3.40;;;16.80;88.80;;;;;;5032149;28;20792;-73
2021/06/24 00:39:59;;;;;;;7.65;3.03;;;16.80;88.80;;;;;;5039129;28;20026;-72
2021/06/24 00:42:29;;;;;;;6.88;2.55;;;16.80;88.90;;;;;;5034111;28;20033;-72
2021/06/24 00:44:55;;;;;;;5.50;2.75;;;16.80;88.90;;;;;;5035853;28;20078;-73
2021/06/24 00:47:21;;;;;;;7.82;3.15;;;16.80;89.40;;;;;;5033251;28;20026;-72
2021/06/24 00:49:47;;;;;;;7.70;3.05;;;16.80;88.90;;;;;;5025242;28;20044;-73
2021/06/24 00:52:13;;;;;;;6.55;2.80;;;16.80;88.90;;;;;;5028165;28;20488;-72
2021/06/24 00:54:38;;;;;;;8.30;3.08;;;16.80;89.00;;;;;;5025584;28;20064;-73
2021/06/24 00:57:06;;;;;;;6.03;2.75;;;16.80;89.10;;;;;;5028462;28;20025;-73
2021/06/24 00:59:34;;;;;;;8.70;3.25;;;16.80;89.10;;;;;;5029668;28;20281;-73
2021/06/24 01:02:00;;;;;;;4.18;2.85;;;16.80;89.10;;;;;;5021100;28;20120;-72
2021/06/24 01:04:25;;;;;;;9.90;4.55;;;16.80;89.20;;;;;;5031594;28;21566;-72
2021/06/24 01:06:52;;;;;;;7.15;3.55;;;16.80;89.40;;;;;;5032128;28;20025;-73
2021/06/24 01:09:19;;;;;;;8.23;2.90;;;16.80;89.50;;;;;;5033899;28;20150;-73
2021/06/24 01:11:46;;;;;;;8.07;3.63;;;16.70;89.40;;;;;;5025921;28;20540;-73
2021/06/24 01:14:12;;;;;;;6.65;3.55;;;16.80;89.50;;;;;;5018307;28;20036;-73
2021/06/24 01:16:40;;;;;;;5.25;3.17;;;16.70;89.60;;;;;;5028094;28;20103;-72
2021/06/24 01:19:07;;;;;;;8.05;2.83;;;16.70;89.60;;;;;;5007435;28;20044;-73
2021/06/24 01:21:34;;;;;;;6.25;3.42;;;16.70;90.00;;;;;;5032887;28;20040;-73
2021/06/24 01:24:00;;;;;;;7.20;3.40;;;16.70;89.70;;;;;;5028817;28;20088;-73
2021/06/24 01:26:26;;;;;;;11.90;3.60;;;16.80;89.80;;;;;;5020428;28;20053;-72
2021/06/24 01:28:52;;;;;;;5.93;2.85;;;16.70;89.90;;;;;;5028301;28;20108;-72
2021/06/24 01:31:20;;;;;;;6.60;3.53;;;16.70;89.90;;;;;;5032188;28;20593;-73
2021/06/24 01:33:46;;;;;;;5.93;3.22;;;16.70;90.00;;;;;;5031267;28;20026;-73
2021/06/24 01:36:13;;;;;;;8.15;3.75;;;16.70;90.00;;;;;;5034745;28;20034;-72
2021/06/24 01:38:41;;;;;;;8.68;3.92;;;16.70;90.00;;;;;;5030344;28;20018;-72
2021/06/24 01:41:10;;;;;;;5.55;3.60;;;16.70;90.10;;;;;;5036732;28;20025;-72
2021/06/24 01:43:35;;;;;;;10.93;3.80;;;16.70;90.10;;;;;;5028784;28;20061;-72
2021/06/24 01:46:01;;;;;;;8.65;4.15;;;16.70;90.10;;;;;;5027442;28;20033;-73
2021/06/24 01:48:28;;;;;;;11.73;4.57;;;16.60;90.00;;;;;;5022845;28;20044;-72
2021/06/24 01:50:55;;;;;;;10.50;3.60;;;16.60;90.10;;;;;;5025801;28;20029;-73
2021/06/24 01:53:21;;;;;;;11.77;4.00;;;16.60;90.10;;;;;;5028282;28;20494;-72
2021/06/24 01:55:47;;;;;;;7.95;3.75;;;16.60;90.10;;;;;;5031253;28;20026;-72
2021/06/24 01:58:21;;;;;;;8.82;3.92;;;16.50;90.20;;;;;;5031490;28;20036;-72
2021/06/24 02:00:47;;;;;;;10.88;4.10;;;16.50;90.20;;;;;;5023049;28;20032;-74
2021/06/24 02:03:15;;;;;;;9.13;4.93;;;16.50;90.20;;;;;;5021735;28;20037;-73
2021/06/24 02:05:42;;;;;;;6.40;3.30;;;16.50;90.20;;;;;;5026718;28;20099;-73
2021/06/24 02:08:15;;;;;;;8.73;4.40;;;16.40;90.20;;;;;;5033828;28;20080;-72
2021/06/24 02:10:42;;;;;;;6.38;3.58;;;16.50;90.30;;;;;;5030783;28;20035;-71
2021/06/24 02:13:08;;;;;;;8.70;4.20;;;16.50;90.30;;;;;;5037073;28;20025;-72
2021/06/24 02:15:34;;;;;;;8.48;4.25;;;16.40;90.20;;;;;;5029626;28;20049;-72
2021/06/24 02:18:00;;;;;;;8.32;3.63;;;16.40;90.30;;;;;;5019822;28;20487;-71
2021/06/24 02:20:26;;;;;;;7.15;3.45;;;16.40;90.20;;;;;;5033474;28;20072;-71
2021/06/24 02:22:51;;;;;;;6.10;3.63;;;16.40;90.20;;;;;;5029431;28;20511;-71
2021/06/24 02:25:17;;;;;;;8.40;3.65;;;16.50;90.30;;;;;;5026609;28;20060;-72
2021/06/24 02:27:43;;;;;;;13.63;4.68;;;16.40;90.20;;;;;;5031875;28;20518;-72
2021/06/24 02:30:11;;;;;;;9.13;3.50;;;16.40;90.20;;;;;;5031521;28;20029;-72
2021/06/24 02:32:37;;;;;;;11.45;4.10;;;16.40;90.20;;;;;;5031023;28;20030;-73
2021/06/24 02:35:06;;;;;;;7.90;3.90;;;16.40;90.30;;;;;;5023201;28;20030;-73
2021/06/24 02:37:32;;;;;;;7.85;3.47;;;16.40;90.30;;;;;;5030932;28;20092;-72
2021/06/24 02:39:58;;;;;;;6.63;3.60;;;16.30;90.20;;;;;;5025239;28;20537;-72
2021/06/24 02:42:23;;;;;;;11.25;3.95;;;16.30;90.30;;;;;;5032456;28;20033;-72
2021/06/24 02:44:49;;;;;;;7.55;4.30;;;16.30;90.30;;;;;;5014320;28;20040;-73
2021/06/24 02:47:15;;;;;;;7.00;3.60;;;16.30;90.30;;;;;;5029774;28;20041;-72
2021/06/24 02:49:40;;;;;;;9.07;3.35;;;16.30;90.30;;;;;;5030813;28;20025;-72
2021/06/24 02:52:07;;;;;;;6.25;3.60;;;16.30;90.30;;;;;;5027850;28;20809;-72
2021/06/24 02:54:32;;;;;;;5.25;3.63;;;16.30;90.30;;;;;;5009104;28;20029;-71
2021/06/24 02:56:59;;;;;;;8.27;3.88;;;16.30;90.40;;;;;;5026380;28;20049;-72
2021/06/24 02:59:26;;;;;;;6.60;3.50;;;16.30;90.40;;;;;;5032660;28;20120;-71
2021/06/24 03:01:52;;;;;;;8.68;4.40;;;16.30;90.40;;;;;;5029488;28;20061;-72
2021/06/24 03:04:21;;;;;;;6.03;3.75;;;16.30;90.40;;;;;;5035570;28;20072;-71
2021/06/24 03:06:48;;;;;;;8.02;3.40;;;16.20;90.40;;;;;;5023143;28;20036;-72
2021/06/24 03:09:13;;;;;;;6.85;3.42;;;16.20;90.60;;;;;;5026406;28;20034;-72
2021/06/24 03:11:39;;;;;;;6.00;3.25;;;16.20;90.50;;;;;;5029247;28;20041;-72
2021/06/24 03:14:05;;;;;;;5.28;3.40;;;16.20;90.50;;;;;;5034503;28;20441;-71
2021/06/24 03:16:31;;;;;;;7.10;4.10;;;16.20;90.50;;;;;;5024674;28;20068;-72
2021/06/24 03:18:56;;;;;;;5.97;3.15;;;16.20;90.50;;;;;;5029946;28;20041;-73
2021/06/24 03:21:22;;;;;;;9.48;4.18;;;16.20;90.60;;;;;;5029474;28;20038;-73
2021/06/24 03:23:48;;;;;;;7.20;4.03;;;16.20;90.60;;;;;;5026597;28;20823;-72
2021/06/24 03:26:14;;;;;;;7.30;4.15;;;16.20;90.70;;;;;;5026791;28;20395;-72
2021/06/24 03:28:40;;;;;;;13.23;3.97;;;16.20;90.80;;;;;;5034919;28;20502;-72
2021/06/24 03:31:05;;;;;;;5.35;3.38;;;16.20;90.80;;;;;;5036909;28;20057;-72
2021/06/24 03:33:31;;;;;;;7.10;3.97;;;16.20;90.80;;;;;;5030603;28;20462;-72
2021/06/24 03:35:57;;;;;;;6.85;3.50;;;16.20;90.80;;;;;;5034472;28;20045;-72
2021/06/24 03:38:23;;;;;;;7.03;3.40;;;16.20;90.80;;;;;;5033092;28;20045;-73
2021/06/24 03:40:48;;;;;;;8.18;3.25;;;16.20;90.90;;;;;;5035610;28;20022;-73
2021/06/24 03:43:14;;;;;;;7.55;3.75;;;16.20;90.90;;;;;;5001495;28;20411;-72
2021/06/24 03:45:40;;;;;;;6.75;3.60;;;16.20;90.90;;;;;;5029672;28;20032;-72
2021/06/24 03:48:07;;;;;;;5.68;3.33;;;16.20;91.00;;;;;;5032523;28;20033;-72
2021/06/24 03:50:34;;;;;;;8.98;3.80;;;16.20;90.90;;;;;;5031337;28;20026;-72
2021/06/24 03:53:00;;;;;;;7.00;3.67;;;16.20;91.00;;;;;;5029259;28;20508;-72
2021/06/24 03:55:38;;;;;;;10.48;4.20;;;16.20;91.00;;;;;;5041945;28;20060;-73
2021/06/24 03:58:06;;;;;;;4.80;3.30;;;16.10;91.20;;;;;;5037407;28;20078;-72
2021/06/24 04:00:33;;;;;;;6.60;3.42;;;16.10;91.10;;;;;;5027935;28;20032;-74
2021/06/24 04:02:59;;;;;;;10.60;4.25;;;16.20;91.10;;;;;;5024806;28;20037;-74
2021/06/24 04:05:27;;;;;;;7.50;3.67;;;16.20;91.10;;;;;;5034875;28;20029;-72
2021/06/24 04:07:53;;;;;;;9.55;4.38;;;16.20;91.10;;;;;;5032346;28;20060;-72
2021/06/24 04:10:19;;;;;;;12.13;4.30;;;16.20;91.10;;;;;;5026724;28;20631;-73
2021/06/24 04:12:44;;;;;;;7.15;4.38;;;16.20;91.10;;;;;;5030997;28;20487;-72
2021/06/24 04:15:11;;;;;;;10.40;3.90;;;16.20;91.10;;;;;;5033797;28;20040;-73
2021/06/24 04:17:36;;;;;;;5.75;3.67;;;16.20;91.10;;;;;;5012960;28;20108;-73
2021/06/24 04:20:03;;;;;;;7.30;3.90;;;16.20;91.20;;;;;;5035715;28;20127;-72
2021/06/24 04:22:29;;;;;;;6.85;4.20;;;16.20;91.10;;;;;;5031037;28;20108;-72
2021/06/24 04:24:54;;;;;;;7.10;3.85;;;16.10;91.10;;;;;;5030076;28;20450;-72
2021/06/24 04:27:20;;;;;;;7.93;4.30;;;16.10;91.20;;;;;;5027991;28;20523;-73
2021/06/24 04:29:46;;;;;;;8.85;4.30;;;16.10;91.20;;;;;;5020356;28;20018;-73
2021/06/24 04:32:11;;;;;;;5.63;3.55;;;16.10;91.30;;;;;;5032450;28;20029;-72
2021/06/24 04:34:37;;;;;;;7.10;4.03;;;16.10;91.20;;;;;;5020368;28;20033;-72
2021/06/24 04:37:03;;;;;;;6.35;3.83;;;16.10;91.30;;;;;;5036542;28;20061;-73
2021/06/24 04:39:29;;;;;;;5.25;3.20;;;16.10;91.30;;;;;;5037190;28;20448;-73
2021/06/24 04:41:55;;;;;;;9.60;3.95;;;16.10;91.30;;;;;;5010677;28;20113;-73
2021/06/24 04:44:20;;;;;;;9.02;3.97;;;16.10;91.30;;;;;;5024157;28;20031;-73
2021/06/24 04:46:46;;;;;;;8.55;4.32;;;16.10;91.30;;;;;;5034089;28;20475;-72
2021/06/24 04:49:12;;;;;;;7.22;3.90;;;16.00;91.30;;;;;;5010464;28;20056;-73
2021/06/24 04:51:38;;;;;;;7.35;3.63;;;16.00;91.30;;;;;;5036030;28;20380;-72
2021/06/24 04:54:03;;;;;;;8.25;3.58;;;16.10;91.50;;;;;;5039080;28;20099;-72
2021/06/24 04:56:29;;;;;;;5.95;3.90;;;16.10;91.40;;;;;;5044506;28;20033;-72
2021/06/24 04:58:55;;;;;;;5.32;4.00;;;16.10;91.30;;;;;;5029015;28;20030;-73
2021/06/24 05:01:20;;;;;;;7.22;3.95;;;16.20;91.30;;;;;;5028559;28;20033;-72
2021/06/24 05:03:46;;;;;;;6.38;3.75;;;16.20;91.20;;;;;;5028358;28;20064;-72
2021/06/24 05:06:14;;;;;;;7.15;4.00;;;16.30;91.20;;;;;;5028451;28;20022;-72
2021/06/24 05:08:40;;;;;;;6.70;3.17;;;16.30;91.10;;;;;;5007167;28;20030;-72
2021/06/24 05:11:06;;;;;;;4.50;3.25;;;16.30;90.90;;;;;;5032455;28;20032;-73
2021/06/24 05:13:33;;;;;;;5.22;2.90;;;16.40;90.80;;;;;;5031636;28;20030;-72
2021/06/24 05:15:58;;;;;;;6.93;3.15;;;16.40;90.80;;;;;;5034844;28;20133;-72
2021/06/24 05:18:24;;;;;;;4.30;2.80;;;16.50;90.70;;;;;;5036302;28;20137;-72
2021/06/24 05:20:51;;;;;;;5.68;3.05;;;16.50;90.50;;;;;;5029578;28;20018;-72
2021/06/24 05:23:17;;;;;;;4.25;2.75;;;16.50;90.40;;;;;;5019632;28;20021;-72
2021/06/24 05:25:45;;;;;;;5.65;2.35;;;16.60;90.40;;;;;;5034897;28;20370;-72
2021/06/24 05:28:11;;;;;;;9.82;2.83;;;16.60;90.40;;;;;;5023457;28;20514;-72
2021/06/24 05:30:37;;;;;;;3.17;2.30;;;16.60;90.30;;;;;;5020097;28;20305;-73
2021/06/24 05:33:04;;;;;;;4.95;2.50;;;16.60;90.20;;;;;;5028014;28;20493;-72
2021/06/24 05:35:32;;;;;;;8.27;2.85;;;16.60;90.30;;;;;;5030834;28;20068;-72
2021/06/24 05:37:58;;;;;;;3.85;2.45;;;16.60;90.20;;;;;;5034165;28;20510;-73
2021/06/24 05:40:24;;;;;;;7.35;3.08;;;16.60;90.10;;;;;;5034683;28;20112;-72
2021/06/24 05:42:50;;;;;;;6.05;2.67;;;16.60;89.50;;;;;;5028108;28;20057;-72
2021/06/24 05:45:16;;;;;;;4.32;2.42;;;16.60;89.30;;;;;;5031337;28;20084;-72
2021/06/24 05:47:42;;;;;;;7.78;3.22;;;16.60;89.20;;;;;;5022365;28;20030;-72
2021/06/24 05:50:08;;;;;;;4.95;2.45;;;16.60;89.20;;;;;;5032433;28;20034;-73
2021/06/24 05:52:36;;;;;;;7.40;3.13;;;16.60;88.60;;;;;;5029910;28;20025;-72
2021/06/24 05:55:03;;;;;;;5.15;2.63;;;16.60;88.80;;;;;;5029558;28;20034;-73
2021/06/24 05:57:28;;;;;;;3.80;2.00;;;16.60;88.40;;;;;;5021360;28;20068;-73
2021/06/24 05:59:55;;;;;;;5.35;2.72;;;16.60;88.40;;;;;;5024489;28;20061;-73
2021/06/24 06:02:21;;;;;;;4.03;2.20;;;16.70;88.00;;;;;;5031530;28;20036;-72
2021/06/24 06:04:47;;;;;;;3.13;1.92;;;16.70;87.90;;;;;;5013696;28;20030;-73
2021/06/24 06:07:12;;;;;;;7.70;2.30;;;16.70;87.90;;;;;;5027212;28;20049;-73
2021/06/24 06:09:38;;;;;;;4.18;2.30;;;16.80;87.70;;;;;;5031864;28;20029;-72
2021/06/24 06:12:05;;;;;;;6.03;2.38;;;16.80;87.60;;;;;;5013015;28;20036;-73
2021/06/24 06:14:31;;;;;;;2.80;2.13;;;16.80;87.50;;;;;;5030892;28;20049;-74
2021/06/24 06:16:57;;;;;;;5.18;2.45;;;16.80;87.40;;;;;;5006793;28;20106;-73
2021/06/24 06:19:23;;;;;;;7.20;2.30;;;16.80;87.10;;;;;;5026642;28;20072;-73
2021/06/24 06:21:49;;;;;;;5.20;2.58;;;16.90;86.90;;;;;;5023215;28;20037;-73
2021/06/24 06:24:14;;;;;;;4.30;2.35;;;16.90;86.70;;;;;;5029497;28;20105;-74
2021/06/24 06:26:40;;;;;;;3.70;2.05;;;16.90;86.20;;;;;;5032982;28;20071;-73
2021/06/24 06:29:06;;;;;;;6.55;2.10;;;16.90;86.20;;;;;;5032233;28;20032;-73
2021/06/24 06:31:36;;;;;;;8.00;2.17;;;16.90;86.00;;;;;;5031166;28;20609;-73
2021/06/24 06:34:01;;;;;;;4.20;2.08;;;16.80;86.00;;;;;;5023227;28;20038;-73
2021/06/24 06:36:28;;;;;;;4.35;1.90;;;16.80;86.10;;;;;;5022738;28;20411;-73
2021/06/24 06:38:53;;;;;;;8.90;2.80;;;16.80;86.10;;;;;;5029124;28;20032;-73
2021/06/24 06:41:19;;;;;;;3.70;2.17;;;16.90;85.40;;;;;;5036504;28;20394;-73
2021/06/24 06:43:45;;;;;;;4.65;2.63;;;16.90;85.80;;;;;;5032161;28;20037;-72
2021/06/24 06:46:11;;;;;;;6.68;2.70;;;16.90;85.10;;;;;;5024509;28;20097;-72
2021/06/24 06:48:36;;;;;;;5.57;2.28;;;16.90;85.00;;;;;;4998775;28;20029;-72
2021/06/24 06:51:02;;;;;;;5.45;2.50;;;16.90;85.30;;;;;;5028286;28;20040;-72
2021/06/24 06:53:28;;;;;;;4.50;2.42;;;17.00;85.20;;;;;;5006675;28;21850;-72
2021/06/24 06:55:54;;;;;;;4.63;2.38;;;17.00;85.50;;;;;;5024695;28;20791;-73
2021/06/24 06:58:19;;;;;;;4.32;2.30;;;17.00;85.40;;;;;;5014541;28;20475;-73
2021/06/24 07:00:45;;;;;;;4.20;2.13;;;17.10;85.60;;;;;;5024670;28;20022;-73
2021/06/24 07:03:11;;;;;;;6.97;2.55;;;17.20;85.60;;;;;;5017145;28;20740;-74
2021/06/24 07:05:37;;;;;;;5.03;2.15;;;17.20;85.60;;;;;;5033130;28;20060;-73
2021/06/24 07:08:03;;;;;;;5.60;2.08;;;17.30;85.70;;;;;;5041517;28;20083;-73
2021/06/24 07:10:29;;;;;;;9.63;2.55;;;17.30;85.40;;;;;;5036764;28;20053;-73
2021/06/24 07:12:55;;;;;;;4.53;2.13;;;17.30;84.90;;;;;;5031789;28;20056;-73
2021/06/24 07:15:21;;;;;;;3.83;2.40;;;17.40;84.80;;;;;;5035026;28;20029;-73
2021/06/24 07:17:47;;;;;;;6.47;2.40;;;17.40;84.10;;;;;;5032216;28;20477;-73
2021/06/24 07:20:14;;;;;;;2.72;1.90;;;17.40;83.40;;;;;;4999356;28;20112;-73
2021/06/24 07:22:40;;;;;;;2.65;2.20;;;17.40;83.60;;;;;;5029270;28;20112;-73
2021/06/24 07:25:07;;;;;;;5.07;2.33;;;17.50;83.80;;;;;;5036791;28;20124;-74
2021/06/24 07:27:33;;;;;;;3.75;2.03;;;17.60;83.70;;;;;;5034753;28;20025;-74
2021/06/24 07:29:59;;;;;;;5.35;2.70;;;17.60;83.40;;;;;;5037225;28;20497;-73
2021/06/24 07:32:24;;;;;;;6.13;3.00;;;17.70;82.40;;;;;;5031543;28;20104;-73
2021/06/24 07:34:50;;;;;;;5.47;2.30;;;17.80;81.40;;;;;;5029919;28;20030;-73
2021/06/24 07:37:16;;;;;;;5.53;2.53;;;17.90;81.00;;;;;;5031626;28;20033;-73
2021/06/24 07:39:42;;;;;;;3.15;1.80;;;18.00;80.40;;;;;;5019197;28;20025;-73
2021/06/24 07:42:08;;;;;;;3.30;2.03;;;18.10;81.00;;;;;;5032425;28;20443;-72
2021/06/24 07:44:34;;;;;;;2.85;2.00;;;18.20;81.20;;;;;;5030339;28;20041;-73
2021/06/24 07:47:00;;;;;;;2.42;1.75;;;18.20;80.80;;;;;;5037816;28;20036;-72
2021/06/24 07:49:25;;;;;;;3.85;2.08;;;18.30;80.60;;;;;;5036830;28;20428;-73
2021/06/24 07:51:51;;;;;;;4.78;2.05;;;18.20;80.60;;;;;;5034987;28;20052;-73
2021/06/24 07:54:17;;;;;;;3.00;1.90;;;18.20;80.60;;;;;;5033083;28;20087;-72
2021/06/24 07:56:43;;;;;;;5.03;2.15;;;18.20;81.00;;;;;;5036359;28;20032;-73
2021/06/24 07:59:11;;;;;;;4.60;2.50;;;18.10;80.40;;;;;;5027900;28;20095;-73
2021/06/24 08:01:39;;;;;;;2.92;2.10;;;18.20;79.10;;;;;;5014095;28;20033;-73
2021/06/24 08:04:06;;;;;;;5.07;2.92;;;18.20;79.80;;;;;;5017782;28;20361;-73
2021/06/24 08:06:32;;;;;;;2.72;1.70;;;18.20;79.80;;;;;;5031634;28;20018;-72
2021/06/24 08:08:58;;;;;;;4.13;2.20;;;18.30;79.50;;;;;;5030060;28;20490;-73
2021/06/24 08:11:24;;;;;;;4.68;2.25;;;18.40;79.80;;;;;;5035480;28;20061;-73
2021/06/24 08:13:50;;;;;;;2.85;2.10;;;18.40;78.90;;;;;;5014823;28;20029;-73
2021/06/24 08:16:16;;;;;;;4.35;2.38;;;18.50;78.60;;;;;;5025360;28;20025;-73
2021/06/24 08:18:42;;;;;;;3.85;1.83;;;18.50;78.20;;;;;;5026810;28;20026;-73
2021/06/24 08:21:09;;;;;;;2.92;1.80;;;18.60;78.20;;;;;;5036168;28;20112;-73
2021/06/24 08:23:36;;;;;;;5.53;2.67;;;18.60;78.00;;;;;;5035154;28;20033;-72
2021/06/24 08:26:01;;;;;;;3.65;2.00;;;18.70;74.60;;;;;;5029153;28;20041;-73
2021/06/24 08:28:29;;;;;;;2.58;1.95;;;18.60;75.50;;;;;;5042835;28;20028;-72
2021/06/24 08:30:55;;;;;;;2.40;1.73;;;18.60;76.40;;;;;;5034384;28;20029;-73
2021/06/24 08:33:21;;;;;;;3.83;2.38;;;18.70;77.10;;;;;;5027556;28;20097;-73
2021/06/24 08:35:47;;;;;;;5.03;2.45;;;18.70;76.40;;;;;;5024592;28;20124;-72
2021/06/24 08:38:14;;;;;;;3.03;2.13;;;18.80;76.50;;;;;;5027189;28;20470;-73
2021/06/24 08:40:41;;;;;;;3.63;1.98;;;18.80;76.50;;;;;;5029316;28;20046;-73
2021/06/24 08:43:08;;;;;;;4.30;1.85;;;18.80;75.90;;;;;;5027453;28;20453;-73
2021/06/24 08:45:34;;;;;;;2.75;1.85;;;18.90;76.60;;;;;;5026993;28;20215;-73
2021/06/24 08:48:01;;;;;;;5.97;2.65;;;19.00;76.00;;;;;;5018824;28;20538;-73
2021/06/24 08:50:27;;;;;;;4.20;1.92;;;19.00;74.60;;;;;;5022413;28;20017;-73
2021/06/24 08:52:54;;;;;;;2.60;1.90;;;19.10;74.90;;;;;;5019154;28;20057;-73
2021/06/24 08:55:21;;;;;;;4.70;2.20;;;19.10;75.50;;;;;;5032886;28;20073;-72
2021/06/24 08:57:48;;;;;;;4.18;2.42;;;19.20;75.00;;;;;;5014707;28;20032;-72
2021/06/24 09:00:14;;;;;;;2.70;1.90;;;19.20;75.50;;;;;;5031784;28;20495;-72
2021/06/24 09:02:41;;;;;;;3.85;2.15;;;19.30;76.00;;;;;;5009927;28;20033;-73
2021/06/24 09:05:09;;;;;;;3.88;2.33;;;19.30;76.20;;;;;;5030433;28;20399;-73
2021/06/24 09:08:01;;;;;;;5.13;2.17;;;19.50;74.10;;;;;;5035138;28;20036;-72
2021/06/24 09:10:27;;;;;;;3.25;2.20;;;19.60;75.10;;;;;;5030797;28;20155;-72
2021/06/24 09:13:02;;;;;;;5.88;2.60;;;19.70;75.10;;;;;;5026867;28;20061;-72
2021/06/24 09:15:36;;;;;;;3.15;2.35;;;19.70;74.40;;;;;;5021835;28;20098;-72
2021/06/24 09:18:02;;;;;;;4.70;2.00;;;19.80;75.00;;;;;;5014673;28;20040;-72
2021/06/24 09:20:30;;;;;;;3.50;2.15;;;19.70;75.30;;;;;;5036559;28;20037;-72
2021/06/24 09:23:17;;;;;;;4.22;2.10;;;19.70;75.40;;;;;;5028154;28;20123;-73
2021/06/24 09:26:15;;;;;;;4.60;2.08;;;19.70;73.90;;;;;;5033222;28;20036;-73
2021/06/24 09:28:50;;;;;;;3.85;2.45;;;19.70;74.50;;;;;;5042022;28;20101;-73
2021/06/24 09:31:30;;;;;;;3.47;2.38;;;19.60;74.80;;;;;;5032246;28;20039;-73
2021/06/24 09:34:05;;;;;;;4.32;2.33;;;19.60;75.30;;;;;;5033013;28;20024;-73
2021/06/24 09:36:34;;;;;;;5.10;2.60;;;19.60;75.30;;;;;;5035351;28;20104;-74
2021/06/24 09:39:00;;;;;;;4.03;2.13;;;19.80;74.10;;;;;;5026177;28;20571;-74
2021/06/24 09:41:26;;;;;;;3.28;2.22;;;19.70;75.00;;;;;;5029820;28;20107;-74
2021/06/24 09:43:54;;;;;;;4.57;2.70;;;19.60;75.30;;;;;;5028971;28;20349;-73
2021/06/24 09:46:20;;;;;;;3.33;2.22;;;19.50;75.80;;;;;;5030576;28;20446;-74
2021/06/24 09:48:47;;;;;;;4.13;2.17;;;19.50;75.70;;;;;;4992769;28;20050;-73
2021/06/24 09:51:13;;;;;;;6.18;2.42;;;19.50;75.80;;;;;;5019519;28;20025;-73
2021/06/24 09:53:59;;;;;;;3.90;2.47;;;19.50;74.70;;;;;;5013038;28;20031;-72
2021/06/24 09:56:27;;;;;;;3.30;2.20;;;19.50;75.40;;;;;;5027664;28;20049;-71
2021/06/24 09:58:55;;;;;;;2.70;2.00;;;19.50;76.00;;;;;;5038319;28;20298;-72
2021/06/24 10:01:33;;;;;;;4.53;2.78;;;19.70;76.50;;;;;;5012626;28;20031;-72
2021/06/24 10:04:01;;;;;;;5.22;2.58;;;19.80;75.60;;;;;;5029337;28;20030;-71
2021/06/24 10:06:28;;;;;;;3.95;2.45;;;20.00;75.80;;;;;;5031255;28;20536;-71
2021/06/24 10:08:54;;;;;;;3.35;2.22;;;20.10;75.60;;;;;;5035448;28;20021;-72
2021/06/24 10:11:23;;;;;;;3.17;2.17;;;20.20;74.50;;;;;;5016733;28;20029;-72
2021/06/24 10:13:49;;;;;;;5.07;3.15;;;20.20;74.40;;;;;;5033296;28;20041;-74
2021/06/24 10:16:16;;;;;;;4.40;2.47;;;20.20;73.10;;;;;;5014696;28;20021;-73
2021/06/24 10:18:47;;;;;;;3.90;2.00;;;20.10;74.50;;;;;;5033870;28;20100;-71
2021/06/24 10:21:15;;;;;;;5.22;3.17;;;20.10;74.40;;;;;;5027750;28;20036;-70
2021/06/24 10:23:48;;;;;;;7.57;3.15;;;20.10;74.40;;;;;;5007157;28;20018;-70
2021/06/24 10:26:15;;;;;;;2.65;2.10;;;20.10;75.50;;;;;;5021592;28;20471;-70
2021/06/24 10:28:41;;;;;;;4.32;3.08;;;20.10;75.20;;;;;;5034529;28;20068;-72
2021/06/24 10:31:07;;;;;;;5.93;3.17;;;20.00;74.30;;;;;;5034779;28;20822;-73
2021/06/24 10:33:55;;;;;;;10.60;3.55;;;20.10;73.90;;;;;;5010570;28;20119;-71
2021/06/24 10:36:21;;;;;;;5.45;3.15;;;20.10;73.60;;;;;;5035673;28;20043;-73
2021/06/24 10:38:51;;;;;;;4.47;2.85;;;20.20;74.00;;;;;;5033272;28;20033;-75
2021/06/24 10:41:18;;;;;;;5.93;2.50;;;20.20;73.70;;;;;;5031975;28;20025;-75
2021/06/24 10:43:46;;;;;;;4.20;2.63;;;20.20;74.00;;;;;;5021476;28;20490;-75
2021/06/24 10:46:14;;;;;;;5.47;3.28;;;20.20;73.90;;;;;;5034997;28;20092;-76
2021/06/24 10:48:40;;;;;;;5.63;2.95;;;20.40;72.40;;;;;;5032210;28;20032;-76
2021/06/24 10:51:11;;;;;;;7.60;3.78;;;20.50;72.60;;;;;;5034185;28;20076;-79
2021/06/24 10:53:46;;;;;;;5.50;2.95;;;20.50;71.20;;;;;;5038036;28;20025;-76
2021/06/24 10:56:25;;;;;;;4.50;2.80;;;20.50;72.00;;;;;;5035142;28;20035;-75
2021/06/24 10:58:51;;;;;;;6.57;3.22;;;20.50;70.70;;;;;;5038170;28;20507;-76
2021/06/24 11:02:00;;;;;;;5.32;2.35;;;20.70;69.40;;;;;;5037020;28;20026;-77
2021/06/24 11:04:38;;;;;;;5.20;3.20;;;20.70;70.00;;;;;;5040470;28;20119;-78
2021/06/24 11:07:25;;;;;;;5.30;2.53;;;20.60;69.30;;;;;;5038698;28;20036;-78
2021/06/24 11:10:20;;;;;;;3.55;2.17;;;20.70;70.40;;;;;;5032495;28;20591;-76
2021/06/24 11:12:57;;;;;;;3.75;2.05;;;20.80;70.70;;;;;;5018891;28;20036;-74
2021/06/24 11:15:45;;;;;;;3.55;1.63;;;20.80;70.60;;;;;;5011605;28;20052;-75
2021/06/24 11:18:46;;;;;;;4.30;2.08;;;21.00;68.90;;;;;;5031503;28;20041;-74
2021/06/24 11:21:35;;;;;;;5.30;2.20;;;21.10;70.20;;;;;;5037387;28;20507;-74
2021/06/24 11:24:02;;;;;;;3.25;2.08;;;21.30;70.60;;;;;;5022548;28;20372;-73
2021/06/24 11:26:32;;;;;;;3.15;1.98;;;21.50;68.40;;;;;;5033569;28;20249;-75
2021/06/24 11:31:55;;;;;;;3.35;2.10;;;21.60;68.50;;;;;;5038576;28;20537;-79
2021/06/24 11:37:09;;;;;;;3.95;2.03;;;21.60;68.50;;;;;;5042354;28;20061;-76
2021/06/24 11:39:37;;;;;;;6.72;2.33;;;21.70;69.80;;;;;;5041626;28;20094;-77
2021/06/24 11:42:10;;;;;;;2.38;1.80;;;21.90;66.90;;;;;;5030899;28;20041;-76
2021/06/24 11:44:40;;;;;;;4.93;2.85;;;21.90;67.70;;;;;;5030692;28;20021;-74
2021/06/24 11:47:14;;;;;;;4.37;3.47;;;21.90;66.40;;;;;;5036287;28;20033;-73
2021/06/24 12:04:06;;;;;;;5.75;2.70;;;22.20;68.10;;;;;;5038434;28;20029;-73
2021/06/24 12:06:59;;;;;;;4.32;2.15;;;22.50;66.60;;;;;;5039876;28;20020;-73
2021/06/24 12:09:28;;;;;;;2.83;1.83;;;22.50;65.80;;;;;;5038131;28;20050;-73
2021/06/24 12:12:01;;;;;;;4.78;2.13;;;22.30;64.90;;;;;;5018928;28;20049;-73
2021/06/24 12:14:33;;;;;;;3.40;2.28;;;22.10;66.30;;;;;;5014942;28;20095;-73
2021/06/24 12:17:08;;;;;;;5.47;2.47;;;21.90;66.20;;;;;;5039390;28;20039;-73
2021/06/24 12:19:52;;;;;;;5.63;2.65;;;21.80;66.90;;;;;;5037668;28;20035;-73
2021/06/24 12:22:24;;;;;;;4.60;2.25;;;22.20;66.80;;;;;;5019436;28;20032;-74
2021/06/24 12:24:52;;;;;;;3.20;2.00;;;22.90;65.80;;;;;;5038813;28;20037;-74
2021/06/24 12:27:28;;;;;;;7.28;2.05;;;23.50;65.30;;;;;;5016600;28;20112;-75
2021/06/24 12:29:59;;;;;;;4.80;2.40;;;23.60;63.80;;;;;;5036864;28;20025;-75
2021/06/24 12:32:26;;;;;;;4.18;2.10;;;23.60;62.60;;;;;;5034960;28;20033;-74
2021/06/24 12:34:55;;;;;;;3.08;2.05;;;23.70;65.10;;;;;;5037026;28;20483;-75
2021/06/24 12:37:33;;;;;;;5.40;2.55;;;24.10;64.50;;;;;;5036049;28;20033;-74
2021/06/24 12:40:00;;;;;;;5.15;2.53;;;24.70;58.40;;;;;;5035847;28;20041;-76
2021/06/24 12:42:26;;;;;;;5.05;2.15;;;25.20;57.50;;;;;;5038239;28;20112;-73
2021/06/24 12:44:52;;;;;;;3.28;1.80;;;25.50;57.60;;;;;;5039245;28;20052;-72
2021/06/24 12:47:42;;;;;;;4.53;2.15;;;25.90;58.80;;;;;;5036264;28;20026;-74
2021/06/24 12:50:24;;;;;;;3.08;1.80;;;26.10;55.10;;;;;;5031917;28;20112;-73
2021/06/24 12:52:54;;;;;;;2.85;1.80;;;26.70;55.20;;;;;;5036250;28;20025;-74
2021/06/24 12:55:37;;;;;;;3.55;1.77;;;26.90;55.00;;;;;;5038833;28;20033;-74
2021/06/24 12:58:04;;;;;;;3.47;2.28;;;27.20;49.80;;;;;;5029726;28;20034;-74
2021/06/24 13:00:30;;;;;;;4.25;1.90;;;26.90;50.00;;;;;;5002662;28;20116;-77
2021/06/24 13:02:56;;;;;;;4.30;2.13;;;26.60;52.00;;;;;;5015588;28;20107;-75
2021/06/24 13:05:26;;;;;;;3.03;1.60;;;26.20;51.40;;;;;;5023129;28;20060;-74
2021/06/24 13:08:03;;;;;;;4.55;1.85;;;25.90;53.30;;;;;;5035154;28;20100;-74
2021/06/24 13:10:28;;;;;;;3.88;1.85;;;25.80;54.00;;;;;;5032287;28;20028;-74